createdAt,value
2019-05-29T00:00:48.593Z,1021.41
2019-05-29T00:01:48.510Z,1021.97
2019-05-29T00:02:48.535Z,1022.07
2019-05-29T00:03:48.530Z,1021.47
2019-05-29T00:04:48.498Z,1021.38
2019-05-29T00:05:48.541Z,1020.97
2019-05-29T00:06:48.516Z,1021.27
2019-05-29T00:07:48.576Z,1020.59
2019-05-29T00:08:48.519Z,1020.08
2019-05-29T00:09:48.521Z,1019.54
2019-05-29T00:10:48.530Z,1019.05
2019-05-29T00:11:48.536Z,1018.92
2019-05-29T00:12:48.526Z,1018.54
2019-05-29T00:13:48.538Z,1018.24
2019-05-29T00:14:48.579Z,1017.64
2019-05-29T00:15:48.552Z,1017.36
2019-05-29T00:16:48.513Z,1017.28
2019-05-29T00:17:48.512Z,1017.17
2019-05-29T00:18:48.571Z,1017.46
2019-05-29T00:19:48.567Z,1017.36
2019-05-29T00:20:48.542Z,1017.16
2019-05-29T00:21:48.575Z,1016.92
2019-05-29T00:22:48.546Z,1016.75
2019-05-29T00:23:48.531Z,1016.53
2019-05-29T00:24:48.579Z,1015.62
2019-05-29T00:25:48.565Z,1015.28
2019-05-29T00:26:48.555Z,1014.94
2019-05-29T00:27:48.590Z,1015.04
2019-05-29T00:28:48.556Z,1014.86
2019-05-29T00:29:48.555Z,1014.97
2019-05-29T00:30:48.570Z,1014.81
2019-05-29T00:31:48.572Z,1014.99
2019-05-29T00:32:48.576Z,1014.75
2019-05-29T00:33:48.571Z,1014.15
2019-05-29T00:34:48.585Z,1013.97
2019-05-29T00:35:48.589Z,1013.62
2019-05-29T00:36:48.588Z,1013.18
2019-05-29T00:37:48.547Z,1012.42
2019-05-29T00:38:48.574Z,1011.5
2019-05-29T00:39:48.582Z,1011.11
2019-05-29T00:40:48.590Z,1010.87
2019-05-29T00:41:48.589Z,1010.79
2019-05-29T00:42:48.578Z,1010.61
2019-05-29T00:43:48.585Z,1010.15
2019-05-29T00:44:48.585Z,1010.09
2019-05-29T00:45:48.885Z,1009.43
2019-05-29T00:46:48.620Z,1009.21
2019-05-29T00:47:49.611Z,1008.91
2019-05-29T00:48:48.699Z,1008.47
2019-05-29T00:49:48.603Z,1007.98
2019-05-29T00:50:48.574Z,1007.8
2019-05-29T00:51:48.578Z,1007.84
2019-05-29T00:52:48.586Z,1007.54
2019-05-29T00:53:48.592Z,1006.84
2019-05-29T00:54:48.599Z,1007.66
2019-05-29T00:55:48.605Z,1007.04
2019-05-29T00:56:48.595Z,1007.14
2019-05-29T00:57:48.595Z,1006.73
2019-05-29T00:58:48.584Z,1006.34
2019-05-29T00:59:48.609Z,1006.04
2019-05-29T01:00:48.615Z,1005.94
2019-05-29T01:01:48.617Z,1005.79
2019-05-29T01:02:48.713Z,1005.3
2019-05-29T01:03:48.586Z,1004.95
2019-05-29T01:04:48.616Z,1004.9
2019-05-29T01:05:48.602Z,1005.04
2019-05-29T01:06:48.608Z,1004.77
2019-05-29T01:07:48.648Z,1004.52
2019-05-29T01:08:48.962Z,1004.82
2019-05-29T01:09:48.618Z,1004.17
2019-05-29T01:10:48.611Z,1004.14
2019-05-29T01:11:48.602Z,1004.07
2019-05-29T01:12:48.605Z,1003.82
2019-05-29T01:13:48.637Z,1004.28
2019-05-29T01:14:50.371Z,1004.11
2019-05-29T01:15:48.603Z,1003.99
2019-05-29T01:16:48.616Z,1003.54
2019-05-29T01:17:48.632Z,1003.32
2019-05-29T01:18:48.657Z,1003.07
2019-05-29T01:19:48.631Z,1002.61
2019-05-29T01:20:48.611Z,1002.37
2019-05-29T01:21:48.633Z,1001.91
2019-05-29T01:22:48.644Z,1001.52
2019-05-29T01:23:48.651Z,1000.9
2019-05-29T01:24:48.617Z,1000.54
2019-05-29T01:25:48.647Z,1000.14
2019-05-29T01:26:48.656Z,1000.25
2019-05-29T01:27:48.638Z,999.79
2019-05-29T01:28:48.637Z,999.44
2019-05-29T01:29:48.656Z,999.4
2019-05-29T01:30:51.407Z,999.28
2019-05-29T01:31:48.643Z,998.9
2019-05-29T01:32:48.628Z,999.31
2019-05-29T01:33:48.642Z,998.84
2019-05-29T01:34:48.668Z,998.87
2019-05-29T01:35:48.660Z,998.57
2019-05-29T01:36:48.722Z,998.62
2019-05-29T01:37:48.939Z,998.38
2019-05-29T01:38:48.666Z,998.61
2019-05-29T01:39:48.672Z,998.05
2019-05-29T01:40:48.666Z,997.98
2019-05-29T01:41:48.671Z,997.6
2019-05-29T01:42:49.979Z,997.7
2019-05-29T01:43:48.672Z,997.3
2019-05-29T01:44:48.680Z,997.33
2019-05-29T01:45:48.675Z,996.99
2019-05-29T01:46:48.680Z,997.16
2019-05-29T01:47:48.665Z,996.98
2019-05-29T01:48:48.695Z,997.16
2019-05-29T01:49:48.660Z,997.06
2019-05-29T01:50:48.689Z,996.48
2019-05-29T01:51:48.674Z,996.43
2019-05-29T01:52:48.677Z,996.19
2019-05-29T01:53:48.666Z,995.85
2019-05-29T01:54:48.699Z,995.4
2019-05-29T01:55:48.701Z,995
2019-05-29T01:56:48.691Z,994.22
2019-05-29T01:57:48.672Z,994.59
2019-05-29T01:58:48.702Z,994.6
2019-05-29T01:59:48.706Z,994.88
2019-05-29T02:00:48.736Z,994.98
2019-05-29T02:01:48.716Z,995.14
2019-05-29T02:02:48.685Z,995.66
2019-05-29T02:03:48.710Z,996.01
2019-05-29T02:04:48.678Z,996.62
2019-05-29T02:05:48.705Z,996.66
2019-05-29T02:06:48.733Z,996.54
2019-05-29T02:07:48.695Z,996.83
2019-05-29T02:08:48.721Z,997.07
2019-05-29T02:09:48.723Z,996.93
2019-05-29T02:10:48.712Z,996.89
2019-05-29T02:11:48.724Z,997.19
2019-05-29T02:12:48.728Z,997.23
2019-05-29T02:13:48.715Z,997.6
2019-05-29T02:14:48.701Z,997.69
2019-05-29T02:15:48.733Z,997.52
2019-05-29T02:16:48.714Z,997.05
2019-05-29T02:17:48.723Z,996.89
2019-05-29T02:18:48.704Z,997.14
2019-05-29T02:19:48.728Z,997.12
2019-05-29T02:20:48.743Z,996.99
2019-05-29T02:21:48.742Z,996.95
2019-05-29T02:22:48.736Z,996.72
2019-05-29T02:23:48.723Z,996.49
2019-05-29T02:24:48.740Z,996.28
2019-05-29T02:25:48.740Z,996.2
2019-05-29T02:26:48.719Z,996.17
2019-05-29T02:27:48.761Z,995.8
2019-05-29T02:28:48.735Z,995.43
2019-05-29T02:29:48.741Z,996.02
2019-05-29T02:30:48.747Z,995.96
2019-05-29T02:31:48.726Z,996.07
2019-05-29T02:32:48.765Z,996.69
2019-05-29T02:33:49.009Z,997.2
2019-05-29T02:34:48.737Z,997.52
2019-05-29T02:35:48.750Z,997.49
2019-05-29T02:36:48.740Z,997.88
2019-05-29T02:37:48.763Z,997.84
2019-05-29T02:38:48.733Z,997.92
2019-05-29T02:39:48.757Z,998.2
2019-05-29T02:40:48.746Z,998.39
2019-05-29T02:41:48.754Z,998.54
2019-05-29T02:42:48.778Z,997.93
2019-05-29T02:43:48.767Z,997.83
2019-05-29T02:44:48.749Z,997.56
2019-05-29T02:45:54.066Z,997.62
2019-05-29T02:46:48.746Z,997.63
2019-05-29T02:47:48.754Z,996.97
2019-05-29T02:48:48.779Z,997.7
2019-05-29T02:49:48.776Z,998.02
2019-05-29T02:50:48.767Z,997.9
2019-05-29T02:51:48.759Z,998.24
2019-05-29T02:52:48.780Z,998.41
2019-05-29T02:53:48.798Z,998.44
2019-05-29T02:54:48.781Z,998.17
2019-05-29T02:55:48.814Z,997.88
2019-05-29T02:56:48.770Z,997.7
2019-05-29T02:57:48.771Z,997.77
2019-05-29T02:58:48.800Z,997.5
2019-05-29T02:59:48.771Z,997.51
2019-05-29T03:00:48.813Z,997.32
2019-05-29T03:01:48.783Z,997.15
2019-05-29T03:02:48.816Z,996.96
2019-05-29T03:03:48.800Z,996.81
2019-05-29T03:04:48.799Z,996.6
2019-05-29T03:05:48.803Z,996.59
2019-05-29T03:06:48.793Z,996.23
2019-05-29T03:07:48.991Z,996.52
2019-05-29T03:08:49.104Z,996.6
2019-05-29T03:09:48.808Z,996.45
2019-05-29T03:10:48.803Z,996.51
2019-05-29T03:11:48.853Z,995.96
2019-05-29T03:12:48.814Z,995.09
2019-05-29T03:13:48.842Z,994.72
2019-05-29T03:14:48.813Z,994.47
2019-05-29T03:16:05.671Z,994.32
2019-05-29T03:16:48.843Z,993.88
2019-05-29T03:17:48.846Z,993.58
2019-05-29T03:18:48.831Z,993.58
2019-05-29T03:19:48.820Z,993.51
2019-05-29T03:20:48.825Z,993.59
2019-05-29T03:21:48.831Z,993.17
2019-05-29T03:22:48.845Z,993.09
2019-05-29T03:23:48.803Z,993.16
2019-05-29T03:24:48.812Z,993.24
2019-05-29T03:25:48.822Z,992.71
2019-05-29T03:26:48.829Z,992.43
2019-05-29T03:27:48.835Z,992.62
2019-05-29T03:28:48.818Z,992.58
2019-05-29T03:29:48.845Z,991.9
2019-05-29T03:30:48.837Z,991.92
2019-05-29T03:31:49.025Z,991.17
2019-05-29T03:32:49.121Z,991.57
2019-05-29T03:33:50.727Z,991.53
2019-05-29T03:34:48.909Z,991.51
2019-05-29T03:35:48.974Z,991.5
2019-05-29T03:36:49.340Z,991.56
2019-05-29T03:37:48.826Z,992.12
2019-05-29T03:38:48.855Z,991.78
2019-05-29T03:39:48.859Z,992.18
2019-05-29T03:40:48.865Z,991.91
2019-05-29T03:41:48.836Z,991.98
2019-05-29T03:42:48.872Z,991.64
2019-05-29T03:43:48.865Z,991.28
2019-05-29T03:44:48.874Z,990.68
2019-05-29T03:45:48.843Z,990.68
2019-05-29T03:46:48.867Z,990.48
2019-05-29T03:47:48.856Z,990.81
2019-05-29T03:48:48.868Z,990.9
2019-05-29T03:49:48.892Z,991.1
2019-05-29T03:50:48.893Z,991.73
2019-05-29T03:51:48.880Z,992.35
2019-05-29T03:52:48.886Z,992.81
2019-05-29T03:53:48.952Z,993.89
2019-05-29T03:54:48.878Z,994.1
2019-05-29T03:55:48.884Z,994.6
2019-05-29T03:56:48.888Z,995.29
2019-05-29T03:57:48.929Z,995.26
2019-05-29T03:58:48.883Z,995.68
2019-05-29T03:59:48.887Z,995.8
2019-05-29T04:00:49.517Z,996.25
2019-05-29T04:01:48.884Z,996.77
2019-05-29T04:02:48.892Z,996.94
2019-05-29T04:03:48.910Z,997.3
2019-05-29T04:04:48.892Z,997.44
2019-05-29T04:05:48.902Z,997.53
2019-05-29T04:06:48.954Z,997.59
2019-05-29T04:07:48.917Z,997.27
2019-05-29T04:08:48.963Z,997.38
2019-05-29T04:09:48.907Z,997.42
2019-05-29T04:10:48.894Z,997.4
2019-05-29T04:11:48.920Z,997.71
2019-05-29T04:12:48.927Z,997.22
2019-05-29T04:13:48.939Z,997.48
2019-05-29T04:14:48.896Z,997.42
2019-05-29T04:15:49.028Z,997.37
2019-05-29T04:16:58.854Z,997.55
2019-05-29T04:17:48.921Z,997.2
2019-05-29T04:18:48.913Z,997.71
2019-05-29T04:19:48.895Z,997.58
2019-05-29T04:20:48.923Z,997.45
2019-05-29T04:21:48.935Z,997.42
2019-05-29T04:22:48.931Z,997.08
2019-05-29T04:23:48.919Z,997.06
2019-05-29T04:24:48.925Z,996.91
2019-05-29T04:25:48.931Z,996.56
2019-05-29T04:26:48.938Z,996.71
2019-05-29T04:27:48.945Z,996.55
2019-05-29T04:28:48.914Z,995.58
2019-05-29T04:29:48.945Z,995.37
2019-05-29T04:30:48.925Z,994.94
2019-05-29T04:31:48.934Z,994.7
2019-05-29T04:32:48.920Z,994.44
2019-05-29T04:33:49.103Z,994.28
2019-05-29T04:34:49.009Z,993.56
2019-05-29T04:35:48.971Z,993.59
2019-05-29T04:36:49.004Z,993.82
2019-05-29T04:37:48.925Z,993.91
2019-05-29T04:38:49.259Z,993.77
2019-05-29T04:39:49.001Z,993.46
2019-05-29T04:40:48.982Z,993.24
2019-05-29T04:41:49.030Z,993.09
2019-05-29T04:42:49.064Z,993.7
2019-05-29T04:43:48.997Z,993.67
2019-05-29T04:44:48.960Z,993.72
2019-05-29T04:45:49.034Z,993.48
2019-05-29T04:46:48.961Z,993.48
2019-05-29T04:47:48.989Z,994.07
2019-05-29T04:48:49.020Z,994.38
2019-05-29T04:49:49.067Z,995.37
2019-05-29T04:50:49.010Z,995.63
2019-05-29T04:51:48.993Z,996.34
2019-05-29T04:52:48.962Z,997.08
2019-05-29T04:53:48.967Z,997.52
2019-05-29T04:54:48.951Z,998.34
2019-05-29T04:55:49.001Z,998.93
2019-05-29T04:56:49.025Z,999.15
2019-05-29T04:57:50.827Z,999.03
2019-05-29T04:58:49.105Z,999.26
2019-05-29T04:59:48.984Z,999.98
2019-05-29T05:00:58.446Z,1000.25
2019-05-29T05:01:49.027Z,1000.97
2019-05-29T05:02:49.002Z,1001.01
2019-05-29T05:03:53.422Z,1001.11
2019-05-29T05:04:48.978Z,1001.34
2019-05-29T05:05:48.990Z,1002.01
2019-05-29T05:06:48.995Z,1002.84
2019-05-29T05:07:48.987Z,1003.33
2019-05-29T05:08:49.277Z,1004.28
2019-05-29T05:09:49.006Z,1005.02
2019-05-29T05:10:48.998Z,1005.98
2019-05-29T05:11:49.013Z,1006.72
2019-05-29T05:12:49.052Z,1007.7
2019-05-29T05:13:48.977Z,1008.76
2019-05-29T05:14:49.036Z,1009.31
2019-05-29T05:15:48.991Z,1010.1
2019-05-29T05:16:49.005Z,1010.74
2019-05-29T05:17:49.003Z,1011.23
2019-05-29T05:18:49.038Z,1011.32
2019-05-29T05:19:49.006Z,1012.19
2019-05-29T05:20:48.991Z,1012.52
2019-05-29T05:21:49.076Z,1012.75
2019-05-29T05:22:49.037Z,1013.47
2019-05-29T05:23:49.071Z,1013.91
2019-05-29T05:24:49.047Z,1013.91
2019-05-29T05:25:48.999Z,1013.93
2019-05-29T05:26:49.005Z,1014.03
2019-05-29T05:27:49.033Z,1014.48
2019-05-29T05:28:49.113Z,1014.82
2019-05-29T05:29:49.005Z,1015.18
2019-05-29T05:30:49.118Z,1015.66
2019-05-29T05:31:49.073Z,1016.12
2019-05-29T05:32:49.024Z,1016.53
2019-05-29T05:33:52.808Z,1016.8
2019-05-29T05:34:49.046Z,1016.91
2019-05-29T05:35:49.011Z,1016.95
2019-05-29T05:36:49.020Z,1016.86
2019-05-29T05:37:49.028Z,1017.15
2019-05-29T05:38:49.048Z,1017.95
2019-05-29T05:39:49.021Z,1018.25
2019-05-29T05:40:49.022Z,1019.33
2019-05-29T05:41:49.027Z,1019.97
2019-05-29T05:42:49.041Z,1021.26
2019-05-29T05:43:49.063Z,1022.29
2019-05-29T05:44:49.034Z,1024.02
2019-05-29T05:45:49.055Z,1025.45
2019-05-29T05:46:49.070Z,1027.4
2019-05-29T05:47:56.764Z,1028.63
2019-05-29T05:48:49.034Z,1030.12
2019-05-29T05:49:49.070Z,1031.73
2019-05-29T05:50:49.068Z,1033.13
2019-05-29T05:51:49.056Z,1034.32
2019-05-29T05:52:49.042Z,1035.54
2019-05-29T05:53:49.070Z,1036.25
2019-05-29T05:54:49.055Z,1037.63
2019-05-29T05:55:49.062Z,1039.28
2019-05-29T05:56:49.073Z,1040.52
2019-05-29T05:57:49.091Z,1041.97
2019-05-29T05:58:49.059Z,1043.84
2019-05-29T05:59:49.045Z,1045.22
2019-05-29T06:00:49.098Z,1047.01
2019-05-29T06:01:49.058Z,1047.99
2019-05-29T06:02:52.169Z,1048.69
2019-05-29T06:03:59.638Z,1049.27
2019-05-29T06:04:49.097Z,1050.03
2019-05-29T06:05:49.056Z,1050.47
2019-05-29T06:06:49.064Z,1051.03
2019-05-29T06:07:49.069Z,1051.74
2019-05-29T06:08:49.099Z,1052.22
2019-05-29T06:09:49.088Z,1052.84
2019-05-29T06:10:51.148Z,1053.07
2019-05-29T06:11:49.100Z,1053.7
2019-05-29T06:12:49.084Z,1054.02
2019-05-29T06:13:49.073Z,1053.75
2019-05-29T06:14:49.081Z,1053.7
2019-05-29T06:15:49.086Z,1053.34
2019-05-29T06:16:49.088Z,1053.59
2019-05-29T06:18:04.997Z,1053.68
2019-05-29T06:18:49.086Z,1054.15
2019-05-29T06:19:49.110Z,1054.42
2019-05-29T06:20:49.097Z,1053.94
2019-05-29T06:21:49.104Z,1054.36
2019-05-29T06:22:49.115Z,1055.32
2019-05-29T06:23:49.113Z,1056.95
2019-05-29T06:24:49.173Z,1059.49
2019-05-29T06:25:49.112Z,1061.53
2019-05-29T06:26:49.097Z,1063.12
2019-05-29T06:27:49.123Z,1064.2
2019-05-29T06:28:49.107Z,1064.7
2019-05-29T06:29:49.103Z,1064.97
2019-05-29T06:30:49.144Z,1064.72
2019-05-29T06:31:49.133Z,1065.75
2019-05-29T06:32:49.113Z,1066.34
2019-05-29T06:34:00.357Z,1066.52
2019-05-29T06:34:49.139Z,1066.04
2019-05-29T06:35:49.142Z,1065.48
2019-05-29T06:36:49.133Z,1064.18
2019-05-29T06:37:49.138Z,1063.58
2019-05-29T06:38:49.164Z,1063.18
2019-05-29T06:39:49.127Z,1062.93
2019-05-29T06:40:49.139Z,1062.98
2019-05-29T06:41:49.143Z,1062.69
2019-05-29T06:42:49.150Z,1062.24
2019-05-29T06:43:49.276Z,1062.03
2019-05-29T06:44:50.094Z,1061.48
2019-05-29T06:45:49.145Z,1060.87
2019-05-29T06:46:49.161Z,1060.16
2019-05-29T06:47:49.157Z,1059.5
2019-05-29T06:48:58.289Z,1059.34
2019-05-29T06:49:49.161Z,1059
2019-05-29T06:50:49.136Z,1058.83
2019-05-29T06:51:49.163Z,1058.22
2019-05-29T06:52:49.150Z,1058.14
2019-05-29T06:53:49.152Z,1057.86
2019-05-29T06:54:49.249Z,1058.42
2019-05-29T06:55:53.622Z,1058.62
2019-05-29T06:56:49.162Z,1058.87
2019-05-29T06:57:49.183Z,1059.02
2019-05-29T06:58:49.168Z,1059.26
2019-05-29T06:59:49.162Z,1059.26
2019-05-29T07:00:49.162Z,1059.5
2019-05-29T07:01:49.157Z,1059.63
2019-05-29T07:02:49.162Z,1059.89
2019-05-29T07:03:49.161Z,1060.25
2019-05-29T07:04:49.193Z,1060.22
2019-05-29T07:05:51.195Z,1060.06
2019-05-29T07:06:49.186Z,1060
2019-05-29T07:07:49.191Z,1059.45
2019-05-29T07:08:50.239Z,1059.37
2019-05-29T07:09:49.167Z,1059.3
2019-05-29T07:10:49.174Z,1059.57
2019-05-29T07:11:49.218Z,1059.44
2019-05-29T07:12:49.251Z,1059.48
2019-05-29T07:13:50.475Z,1059.93
2019-05-29T07:14:49.185Z,1061.31
2019-05-29T07:15:49.208Z,1062.5
2019-05-29T07:16:55.491Z,1063.44
2019-05-29T07:17:49.279Z,1064.42
2019-05-29T07:19:22.652Z,1065.47
2019-05-29T07:20:09.097Z,1066.31
2019-05-29T07:21:09.113Z,1067.11
2019-05-29T07:22:09.088Z,1067.66
2019-05-29T07:23:09.102Z,1068.57
2019-05-29T07:24:09.087Z,1069.32
2019-05-29T07:25:09.107Z,1070.02
2019-05-29T07:26:09.105Z,1071.54
2019-05-29T07:27:13.222Z,1072.78
2019-05-29T07:28:09.139Z,1074.49
2019-05-29T07:29:09.115Z,1075.87
2019-05-29T07:30:09.120Z,1077.27
2019-05-29T07:31:09.109Z,1078.44
2019-05-29T07:32:09.101Z,1079.66
2019-05-29T07:33:09.101Z,1080.07
2019-05-29T07:34:09.131Z,1079.94
2019-05-29T07:35:09.133Z,1079.98
2019-05-29T07:36:09.126Z,1079.76
2019-05-29T07:37:09.135Z,1079.72
2019-05-29T07:38:09.146Z,1080.1
2019-05-29T07:39:09.125Z,1080.48
2019-05-29T07:40:09.109Z,1080.98
2019-05-29T07:41:09.168Z,1081.61
2019-05-29T07:42:09.123Z,1082.76
2019-05-29T07:43:09.159Z,1083.38
2019-05-29T07:44:09.133Z,1084.21
2019-05-29T07:45:09.126Z,1084.92
2019-05-29T07:46:09.137Z,1085.66
2019-05-29T07:47:09.946Z,1086.56
2019-05-29T07:48:09.160Z,1087.27
2019-05-29T07:49:09.127Z,1088.37
2019-05-29T07:50:09.137Z,1090.78
2019-05-29T07:51:09.157Z,1092.22
2019-05-29T07:52:09.134Z,1092.95
2019-05-29T07:53:09.134Z,1093.43
2019-05-29T07:54:09.141Z,1094.18
2019-05-29T07:55:09.148Z,1094.92
2019-05-29T07:56:21.538Z,1095.78
2019-05-29T07:57:09.501Z,1096.78
2019-05-29T07:58:09.228Z,1096.96
2019-05-29T07:59:09.168Z,1096.87
2019-05-29T08:00:09.141Z,1096.98
2019-05-29T08:01:13.447Z,1097.18
2019-05-29T08:02:09.154Z,1097.31
2019-05-29T08:03:09.154Z,1097.68
2019-05-29T08:04:10.198Z,1097.6
2019-05-29T08:10:50.925Z,1096.25
2019-05-29T08:11:50.909Z,1096
2019-05-29T08:12:55.158Z,1095.86
2019-05-29T08:13:50.884Z,1095.41
2019-05-29T08:14:50.898Z,1095.22
2019-05-29T08:16:01.202Z,1094.99
2019-05-29T08:16:50.911Z,1094.75
2019-05-29T08:17:50.918Z,1095.26
2019-05-29T08:18:52.833Z,1095.88
2019-05-29T08:20:02.529Z,1096.63
2019-05-29T08:20:50.934Z,1097.11
2019-05-29T08:21:50.933Z,1097.16
2019-05-29T08:22:51.326Z,1097.62
2019-05-29T08:23:50.980Z,1098.84
2019-05-29T08:24:51.177Z,1100.15
2019-05-29T08:25:51.844Z,1101.59
2019-05-29T08:26:51.124Z,1102.95
2019-05-29T08:27:50.915Z,1103.97
2019-05-29T08:28:51.209Z,1104.81
2019-05-29T08:29:51.213Z,1105.24
2019-05-29T08:30:55.587Z,1105.57
2019-05-29T08:31:51.073Z,1105.8
2019-05-29T08:32:51.314Z,1106.25
2019-05-29T08:33:51.335Z,1106.87
2019-05-29T08:34:51.277Z,1107.01
2019-05-29T08:35:59.195Z,1107.75
2019-05-29T08:37:04.714Z,1108.43
2019-05-29T08:37:51.150Z,1109.25
2019-05-29T08:38:51.695Z,1109.76
2019-05-29T08:39:51.657Z,1110.23
2019-05-29T08:40:51.486Z,1110.68
2019-05-29T08:42:16.945Z,1110.73
2019-05-29T08:42:51.436Z,1111.08
2019-05-29T08:43:51.049Z,1111.24
2019-05-29T08:44:51.655Z,1111.38
2019-05-29T08:45:52.618Z,1111.72
2019-05-29T08:47:04.044Z,1111.79
2019-05-29T08:47:51.936Z,1112.05
2019-05-29T08:48:52.204Z,1111.9
2019-05-29T08:49:53.990Z,1111.99
2019-05-29T08:50:51.967Z,1111.93
2019-05-29T08:51:52.199Z,1111.9
2019-05-29T08:52:52.183Z,1111.57
2019-05-29T08:53:52.394Z,1111.11
2019-05-29T08:54:51.962Z,1110.7
2019-05-29T08:55:50.982Z,1110.24
2019-05-29T08:56:50.968Z,1109.82
2019-05-29T08:57:50.977Z,1109.28
2019-05-29T08:58:51.002Z,1108.78
2019-05-29T08:59:51.171Z,1107.91
2019-05-29T09:00:53.845Z,1107.22
2019-05-29T09:01:52.934Z,1106.3
2019-05-29T09:02:51.205Z,1105.14
2019-05-29T09:03:51.287Z,1104.02
2019-05-29T09:04:52.890Z,1103.29
2019-05-29T09:06:06.589Z,1102.53
2019-05-29T09:06:51.204Z,1102
2019-05-29T09:07:52.039Z,1101.23
2019-05-29T09:08:52.771Z,1100.75
2019-05-29T09:09:51.292Z,1100.29
2019-05-29T09:10:51.802Z,1100.04
2019-05-29T09:11:51.836Z,1099.67
2019-05-29T09:13:01.634Z,1099.58
2019-05-29T09:13:50.986Z,1099.14
2019-05-29T09:14:51.041Z,1099.13
2019-05-29T09:15:51.019Z,1098.72
2019-05-29T09:16:51.026Z,1098.38
2019-05-29T09:17:51.006Z,1098.44
2019-05-29T09:18:51.013Z,1098.3
2019-05-29T09:19:51.024Z,1098.06
2019-05-29T09:21:02.457Z,1098.22
2019-05-29T09:21:51.015Z,1098.19
2019-05-29T09:22:51.009Z,1098.53
2019-05-29T09:23:51.014Z,1098.62
2019-05-29T09:24:51.065Z,1098.9
2019-05-29T09:25:51.017Z,1099.19
2019-05-29T09:26:51.007Z,1099.09
2019-05-29T09:27:51.026Z,1099.03
2019-05-29T09:28:51.807Z,1098.76
2019-05-29T09:29:51.036Z,1098.46
2019-05-29T09:30:51.014Z,1097.79
2019-05-29T09:31:51.086Z,1097.28
2019-05-29T09:32:52.911Z,1097.14
2019-05-29T09:33:51.136Z,1097.36
2019-05-29T09:34:51.042Z,1097.7
2019-05-29T09:35:51.038Z,1098.13
2019-05-29T09:36:54.010Z,1097.99
2019-05-29T09:37:51.020Z,1098.22
2019-05-29T09:38:51.418Z,1098.56
2019-05-29T09:39:51.345Z,1098.54
2019-05-29T09:40:52.795Z,1098.43
2019-05-29T09:41:51.055Z,1098.32
2019-05-29T09:42:51.043Z,1098.41
2019-05-29T09:43:58.581Z,1099.1
2019-05-29T09:44:51.044Z,1099.92
2019-05-29T09:45:51.139Z,1100.3
2019-05-29T09:46:51.335Z,1101.09
2019-05-29T09:47:51.043Z,1101.63
2019-05-29T09:48:51.074Z,1102.12
2019-05-29T09:49:51.064Z,1102.42
2019-05-29T09:50:51.067Z,1102.61
2019-05-29T09:51:52.463Z,1102.91
2019-05-29T09:52:51.056Z,1103.27
2019-05-29T09:53:52.454Z,1103.61
2019-05-29T09:54:52.902Z,1103.99
2019-05-29T09:55:52.024Z,1104.48
2019-05-29T09:56:52.236Z,1105.33
2019-05-29T09:57:52.383Z,1105.91
2019-05-29T09:58:52.699Z,1106.4
2019-05-29T09:59:51.065Z,1107.1
2019-05-29T10:01:08.238Z,1107.7
2019-05-29T10:01:51.099Z,1108.21
2019-05-29T10:02:51.089Z,1108.53
2019-05-29T10:03:51.113Z,1108.81
2019-05-29T10:04:51.085Z,1109.52
2019-05-29T10:05:51.087Z,1109.78
2019-05-29T10:06:51.085Z,1110.08
2019-05-29T10:07:51.171Z,1109.94
2019-05-29T10:08:51.094Z,1109.85
2019-05-29T10:09:51.105Z,1109.7
2019-05-29T10:10:51.147Z,1109.72
2019-05-29T10:11:51.113Z,1109.78
2019-05-29T10:12:51.114Z,1109.81
2019-05-29T10:13:51.084Z,1110.01
2019-05-29T10:14:51.468Z,1110.15
2019-05-29T10:15:51.116Z,1110.35
2019-05-29T10:16:51.143Z,1110.47
2019-05-29T10:17:51.132Z,1110.86
2019-05-29T10:18:51.117Z,1111.22
2019-05-29T10:19:51.141Z,1111.86
2019-05-29T10:20:51.090Z,1112.16
2019-05-29T10:21:51.113Z,1112.83
2019-05-29T10:22:51.101Z,1113.01
2019-05-29T10:23:51.127Z,1113.31
2019-05-29T10:24:51.128Z,1113.4
2019-05-29T10:25:51.119Z,1112.94
2019-05-29T10:26:51.108Z,1112.67
2019-05-29T10:27:51.113Z,1112.78
2019-05-29T10:29:04.259Z,1113.2
2019-05-29T10:29:52.790Z,1113.59
2019-05-29T10:30:52.706Z,1114.04
2019-05-29T10:31:52.978Z,1114.47
2019-05-29T10:32:52.671Z,1114.78
2019-05-29T10:33:52.313Z,1115.04
2019-05-29T10:34:52.567Z,1115.44
2019-05-29T10:35:53.781Z,1115.9
2019-05-29T10:36:53.360Z,1116.67
2019-05-29T10:37:51.139Z,1117.27
2019-05-29T10:38:51.166Z,1117.93
2019-05-29T10:39:51.174Z,1118.74
2019-05-29T10:41:00.002Z,1119
2019-05-29T10:41:51.147Z,1119.04
2019-05-29T10:42:51.548Z,1119.11
2019-05-29T10:43:51.282Z,1119.12
2019-05-29T10:44:51.325Z,1119.2
2019-05-29T10:45:52.041Z,1119.99
2019-05-29T10:46:52.331Z,1120.3
2019-05-29T10:47:52.315Z,1120.95
2019-05-29T10:48:53.872Z,1121.33
2019-05-29T10:49:51.804Z,1121.92
2019-05-29T10:50:53.412Z,1122.26
2019-05-29T10:52:05.308Z,1122.41
2019-05-29T10:52:52.142Z,1122.54
2019-05-29T10:53:52.997Z,1122.73
2019-05-29T10:54:52.310Z,1122.96
2019-05-29T10:55:51.156Z,1123.16
2019-05-29T10:56:52.469Z,1122.99
2019-05-29T10:57:51.195Z,1122.92
2019-05-29T10:58:56.035Z,1122.78
2019-05-29T10:59:51.160Z,1122.57
2019-05-29T11:00:51.322Z,1122.57
2019-05-29T11:01:51.665Z,1122.83
2019-05-29T11:02:53.406Z,1122.84
2019-05-29T11:03:52.270Z,1122.98
2019-05-29T11:04:54.707Z,1122.89
2019-05-29T11:05:51.584Z,1122.89
2019-05-29T11:06:52.417Z,1122.53
2019-05-29T11:07:51.857Z,1122.2
2019-05-29T11:08:51.997Z,1121.29
2019-05-29T11:09:52.144Z,1120.69
2019-05-29T11:10:52.063Z,1120.27
2019-05-29T11:11:53.007Z,1120.19
2019-05-29T11:12:52.494Z,1120.09
2019-05-29T11:13:51.212Z,1120.11
2019-05-29T11:14:51.197Z,1120.39
2019-05-29T11:15:51.247Z,1120.81
2019-05-29T11:16:51.244Z,1121.61
2019-05-29T11:17:51.456Z,1122.47
2019-05-29T11:18:51.299Z,1123.27
2019-05-29T11:19:51.557Z,1123.83
2019-05-29T11:20:51.398Z,1124.2
2019-05-29T11:21:51.691Z,1124.28
2019-05-29T11:22:51.618Z,1124.59
2019-05-29T11:23:51.809Z,1125.02
2019-05-29T11:24:52.311Z,1125.09
2019-05-29T11:25:52.051Z,1125.32
2019-05-29T11:26:52.503Z,1125.47
2019-05-29T11:27:53.002Z,1125.62
2019-05-29T11:28:52.303Z,1125.96
2019-05-29T11:29:53.085Z,1126.06
2019-05-29T11:30:52.225Z,1126.15
2019-05-29T11:31:52.017Z,1126.24
2019-05-29T11:32:52.976Z,1126.37
2019-05-29T11:33:51.267Z,1126.27
2019-05-29T11:34:52.252Z,1126.02
2019-05-29T11:36:00.475Z,1126.14
2019-05-29T11:36:51.907Z,1126.41
2019-05-29T11:37:52.461Z,1126.42
2019-05-29T11:38:52.439Z,1126.53
2019-05-29T11:39:52.420Z,1126.7
2019-05-29T11:41:03.242Z,1127
2019-05-29T11:41:51.228Z,1127.14
2019-05-29T11:42:52.643Z,1127.25
2019-05-29T11:43:51.266Z,1127.39
2019-05-29T11:44:51.259Z,1127.36
2019-05-29T11:45:51.323Z,1127.37
2019-05-29T11:46:52.093Z,1127.4
2019-05-29T11:47:51.569Z,1127.62
2019-05-29T11:48:51.264Z,1127.48
2019-05-29T11:49:51.265Z,1127.71
2019-05-29T11:50:52.099Z,1127.81
2019-05-29T11:51:51.638Z,1128.26
2019-05-29T11:52:52.299Z,1128.56
2019-05-29T11:53:51.513Z,1129.45
2019-05-29T11:54:53.440Z,1131.17
2019-05-29T11:55:52.383Z,1132.63
2019-05-29T11:56:52.207Z,1133.31
2019-05-29T11:57:51.800Z,1133.99
2019-05-29T11:58:51.286Z,1135.03
2019-05-29T11:59:51.814Z,1135.46
2019-05-29T12:00:51.272Z,1135.7
2019-05-29T12:01:52.862Z,1135.83
2019-05-29T12:02:51.658Z,1135.98
2019-05-29T12:04:12.593Z,1135.98
2019-05-29T12:04:51.322Z,1136.13
2019-05-29T12:05:51.541Z,1136.15
2019-05-29T12:06:51.328Z,1136.12
2019-05-29T12:07:51.605Z,1136.35
2019-05-29T12:08:51.478Z,1136.37
2019-05-29T12:09:51.442Z,1136.33
2019-05-29T12:10:51.335Z,1136.31
2019-05-29T12:11:51.744Z,1136.31
2019-05-29T12:12:51.492Z,1136.36
2019-05-29T12:13:51.729Z,1136.32
2019-05-29T12:15:00.058Z,1136.46
2019-05-29T12:15:51.525Z,1136.57
2019-05-29T12:16:51.712Z,1136.6
2019-05-29T12:17:57.770Z,1136.56
2019-05-29T12:18:51.548Z,1136.57
2019-05-29T12:19:51.861Z,1136.47
2019-05-29T12:20:52.045Z,1136.49
2019-05-29T12:21:52.255Z,1136.37